createdAt,value
2018-12-16T00:02:32.837Z,24.17
2018-12-16T00:05:16.780Z,28.43
2018-12-16T00:08:40.276Z,26.60
2018-12-16T00:11:28.841Z,24.40
2018-12-16T00:14:11.518Z,24.70
2018-12-16T00:16:55.082Z,24.77
2018-12-16T00:19:39.684Z,27.10
2018-12-16T00:22:29.717Z,25.20
2018-12-16T00:25:09.912Z,25.20
2018-12-16T00:27:53.794Z,25.03
2018-12-16T00:30:37.042Z,23.63
2018-12-16T00:33:22.665Z,25.43
2018-12-16T00:36:09.139Z,23.30
2018-12-16T00:38:53.548Z,26.33
2018-12-16T00:41:36.119Z,23.40
2018-12-16T00:44:19.668Z,22.20
2018-12-16T00:47:03.889Z,21.13
2018-12-16T00:49:47.418Z,20.63
2018-12-16T00:52:36.335Z,19.40
2018-12-16T00:55:15.148Z,30.53
2018-12-16T00:57:58.180Z,22.70
2018-12-16T01:00:42.203Z,21.40
2018-12-16T01:03:25.684Z,24.53
2018-12-16T01:06:10.894Z,22.57
2018-12-16T01:08:53.838Z,22.93
2018-12-16T01:11:36.716Z,25.77
2018-12-16T01:14:19.548Z,26.23
2018-12-16T01:17:02.321Z,30.23
2018-12-16T01:19:45.201Z,23.80
2018-12-16T01:22:28.188Z,22.67
2018-12-16T01:25:10.913Z,23.10
2018-12-16T01:27:54.376Z,24.77
2018-12-16T01:30:37.411Z,28.47
2018-12-16T01:33:29.667Z,24.70
2018-12-16T01:36:13.008Z,24.53
2018-12-16T01:38:57.641Z,25.97
2018-12-16T01:41:41.764Z,21.87
2018-12-16T01:44:25.273Z,29.13
2018-12-16T01:47:08.238Z,24.53
2018-12-16T01:49:51.949Z,26.07
2018-12-16T01:52:36.226Z,26.60
2018-12-16T01:55:24.514Z,28.10
2018-12-16T01:58:06.834Z,24.67
2018-12-16T02:00:50.098Z,23.10
2018-12-16T02:03:34.786Z,24.60
2018-12-16T02:06:18.013Z,24.67
2018-12-16T02:09:00.805Z,23.70
2018-12-16T02:11:44.855Z,27.77
2018-12-16T02:14:30.234Z,25.93
2018-12-16T02:17:13.746Z,26.60
2018-12-16T02:19:55.916Z,24.43
2018-12-16T02:22:39.144Z,28.23
2018-12-16T02:25:23.249Z,27.33
2018-12-16T02:28:08.207Z,25.53
2018-12-16T02:30:51.793Z,26.50
2018-12-16T02:33:34.930Z,28.37
2018-12-16T02:36:17.444Z,28.23
2018-12-16T02:39:01.655Z,28.20
2018-12-16T02:41:45.496Z,27.27
2018-12-16T02:44:29.021Z,28.67
2018-12-16T02:47:12.731Z,25.63
2018-12-16T02:49:55.684Z,24.97
2018-12-16T02:52:39.966Z,29.60
2018-12-16T02:55:23.108Z,24.93
2018-12-16T02:58:07.652Z,27.83
2018-12-16T03:00:50.189Z,28.17
2018-12-16T03:03:32.702Z,29.83
2018-12-16T03:06:17.515Z,28.87
2018-12-16T03:09:00.770Z,33.37
2018-12-16T03:11:43.392Z,30.23
2018-12-16T03:14:27.016Z,32.27
2018-12-16T03:17:10.657Z,27.33
2018-12-16T03:19:54.732Z,27.00
2018-12-16T03:22:39.015Z,30.93
2018-12-16T03:25:22.418Z,29.50
2018-12-16T03:28:05.364Z,29.43
2018-12-16T03:30:47.735Z,30.87
2018-12-16T03:33:32.477Z,25.10
2018-12-16T03:36:16.865Z,32.77
2018-12-16T03:38:59.342Z,27.10
2018-12-16T03:41:42.272Z,29.67
2018-12-16T03:44:26.239Z,29.37
2018-12-16T03:47:11.398Z,31.97
2018-12-16T03:49:54.608Z,33.73
2018-12-16T03:52:38.204Z,30.87
2018-12-16T03:55:21.613Z,34.50
2018-12-16T03:58:05.012Z,27.90
2018-12-16T04:00:48.438Z,32.67
2018-12-16T04:03:31.669Z,33.47
2018-12-16T04:06:14.935Z,32.00
2018-12-16T04:08:58.159Z,28.03
2018-12-16T04:11:42.766Z,33.53
2018-12-16T04:14:27.754Z,29.93
2018-12-16T04:17:15.126Z,35.00
2018-12-16T04:20:00.457Z,33.00
2018-12-16T04:22:47.293Z,30.23
2018-12-16T04:25:32.663Z,33.50
2018-12-16T04:28:15.892Z,31.63
2018-12-16T04:30:59.065Z,28.83
2018-12-16T04:33:42.133Z,34.50
2018-12-16T04:36:24.772Z,34.10
2018-12-16T04:39:09.397Z,33.73
2018-12-16T04:41:53.127Z,29.97
2018-12-16T04:44:36.758Z,32.20
2018-12-16T04:47:20.540Z,29.93
2018-12-16T04:50:03.272Z,25.63
2018-12-16T04:52:45.466Z,33.63
2018-12-16T04:55:29.621Z,34.57
2018-12-16T04:58:12.694Z,29.47
2018-12-16T05:00:56.215Z,32.70
2018-12-16T05:03:39.129Z,30.30
2018-12-16T05:06:22.326Z,36.63
2018-12-16T05:09:06.994Z,28.10
2018-12-16T05:11:50.600Z,28.70
2018-12-16T05:14:34.460Z,31.60
2018-12-16T05:17:17.392Z,29.17
2018-12-16T05:20:00.883Z,26.17
2018-12-16T05:22:44.007Z,25.93
2018-12-16T05:25:26.593Z,27.20
2018-12-16T05:28:09.742Z,29.07
2018-12-16T05:30:52.913Z,31.47
2018-12-16T05:33:36.246Z,25.87
2018-12-16T05:36:19.146Z,33.10
2018-12-16T05:39:02.753Z,32.40
2018-12-16T05:41:45.588Z,32.67
2018-12-16T05:44:28.347Z,28.43
2018-12-16T05:47:16.855Z,31.17
2018-12-16T05:50:01.296Z,28.37
2018-12-16T05:52:44.968Z,30.33
2018-12-16T05:55:28.717Z,34.10
2018-12-16T05:58:11.740Z,32.03
2018-12-16T06:00:55.953Z,32.57
2018-12-16T06:03:38.577Z,29.00
2018-12-16T06:06:23.464Z,34.63
2018-12-16T06:09:07.282Z,30.03
2018-12-16T06:11:53.439Z,30.43
2018-12-16T06:14:36.611Z,33.70
2018-12-16T06:17:20.556Z,35.87
2018-12-16T06:20:04.264Z,35.33
2018-12-16T06:22:47.568Z,39.27
2018-12-16T06:25:30.785Z,40.83
2018-12-16T06:28:18.856Z,36.83
2018-12-16T06:31:02.112Z,38.33
2018-12-16T06:33:46.396Z,35.00
2018-12-16T06:36:29.023Z,36.27
2018-12-16T06:39:13.738Z,37.17
2018-12-16T06:41:57.537Z,35.97
2018-12-16T06:44:41.526Z,36.73
2018-12-16T06:47:24.376Z,37.17
2018-12-16T06:50:08.856Z,41.07
2018-12-16T06:52:52.016Z,41.00
2018-12-16T06:58:08.461Z,41.77
2018-12-16T07:00:51.845Z,45.83
2018-12-16T07:03:35.271Z,45.43
2018-12-16T07:06:18.627Z,49.10
2018-12-16T07:09:03.129Z,52.77
2018-12-16T07:11:48.767Z,52.37
2018-12-16T07:14:35.040Z,51.07
2018-12-16T07:17:18.878Z,55.87
2018-12-16T07:20:02.381Z,48.33
2018-12-16T07:22:47.791Z,50.97
2018-12-16T07:25:32.409Z,50.67
2018-12-16T07:28:17.406Z,48.23
2018-12-16T07:31:02.799Z,48.53
2018-12-16T07:33:46.459Z,48.50
2018-12-16T07:36:32.141Z,52.43
2018-12-16T07:39:17.178Z,48.00
2018-12-16T07:42:01.008Z,43.23
2018-12-16T07:44:45.169Z,46.63
2018-12-16T07:47:30.022Z,48.90
2018-12-16T07:50:13.169Z,48.13
2018-12-16T07:53:01.312Z,52.10
2018-12-16T07:55:46.465Z,49.47
2018-12-16T07:58:31.646Z,60.63
2018-12-16T08:01:17.602Z,49.97
2018-12-16T08:04:03.310Z,52.53
2018-12-16T08:06:50.057Z,53.33
2018-12-16T08:09:36.291Z,55.50
2018-12-16T08:12:20.540Z,61.47
2018-12-16T08:15:06.556Z,58.60
2018-12-16T08:17:51.424Z,68.47
2018-12-16T08:20:39.796Z,59.33
2018-12-16T08:23:28.481Z,66.90
2018-12-16T08:26:11.802Z,73.57
2018-12-16T08:28:56.123Z,67.83
2018-12-16T08:31:41.960Z,82.30
2018-12-16T08:34:24.705Z,81.13
2018-12-16T08:37:08.541Z,83.00
2018-12-16T08:39:52.871Z,73.27
2018-12-16T08:42:44.697Z,77.57
2018-12-16T08:45:29.698Z,78.93
2018-12-16T08:48:16.437Z,81.57
2018-12-16T08:50:59.400Z,82.33
2018-12-16T08:53:45.788Z,77.03
2018-12-16T08:56:31.201Z,79.00
2018-12-16T08:59:15.349Z,75.47
2018-12-16T09:02:00.316Z,78.50
2018-12-16T09:04:44.911Z,73.23
2018-12-16T09:07:37.052Z,77.20
2018-12-16T09:10:16.266Z,74.37
2018-12-16T09:13:03.196Z,71.87
2018-12-16T09:15:49.972Z,73.23
2018-12-16T09:18:35.963Z,71.77
2018-12-16T09:21:20.714Z,77.90
2018-12-16T09:24:04.244Z,76.50
2018-12-16T09:26:47.864Z,70.30
2018-12-16T09:29:34.592Z,66.97
2018-12-16T09:32:18.178Z,67.63
2018-12-16T09:35:02.659Z,78.43
2018-12-16T09:37:47.052Z,70.67
2018-12-16T09:40:32.083Z,70.73
2018-12-16T09:43:15.820Z,69.13
2018-12-16T09:45:59.769Z,64.20
2018-12-16T09:48:42.756Z,67.80
2018-12-16T09:51:26.292Z,65.70
2018-12-16T09:54:09.990Z,58.77
2018-12-16T09:56:54.955Z,58.87
2018-12-16T09:59:38.997Z,58.10
2018-12-16T10:02:23.743Z,57.43
2018-12-16T10:05:07.412Z,60.30
2018-12-16T10:07:51.807Z,57.50
2018-12-16T10:10:35.028Z,49.83
2018-12-16T10:13:19.972Z,54.33
2018-12-16T10:16:02.794Z,58.90
2018-12-16T10:18:45.406Z,57.80
2018-12-16T10:21:29.174Z,53.13
2018-12-16T10:24:13.666Z,53.47
2018-12-16T10:27:01.862Z,59.17
2018-12-16T10:29:46.678Z,59.10
2018-12-16T10:32:34.616Z,54.37
2018-12-16T10:35:19.512Z,55.90
2018-12-16T10:38:02.812Z,54.43
2018-12-16T10:40:48.243Z,56.20
2018-12-16T10:43:32.164Z,57.47
2018-12-16T10:46:16.163Z,55.63
2018-12-16T10:49:04.721Z,60.33
2018-12-16T10:51:48.676Z,46.77
2018-12-16T10:54:31.484Z,54.47
2018-12-16T10:57:15.515Z,53.23
2018-12-16T10:59:59.453Z,48.60
2018-12-16T11:02:43.562Z,58.50
2018-12-16T11:05:27.554Z,48.00
2018-12-16T11:08:12.214Z,49.07
2018-12-16T11:10:58.485Z,48.93
2018-12-16T11:13:44.578Z,46.17
2018-12-16T11:16:28.444Z,51.03
2018-12-16T11:19:12.771Z,62.03
2018-12-16T11:21:57.151Z,51.23
2018-12-16T11:24:41.777Z,52.87
2018-12-16T11:27:27.452Z,46.67
2018-12-16T11:30:12.056Z,62.00
2018-12-16T11:32:57.314Z,46.70
2018-12-16T11:35:40.376Z,48.27
2018-12-16T11:38:24.510Z,50.97
2018-12-16T11:41:08.140Z,48.07
2018-12-16T11:43:52.368Z,59.07
2018-12-16T11:46:35.796Z,57.03
2018-12-16T11:49:19.352Z,59.90
2018-12-16T11:52:02.636Z,64.37
2018-12-16T11:54:46.728Z,57.47
2018-12-16T11:57:30.918Z,53.97
2018-12-16T12:00:15.006Z,52.23
2018-12-16T12:02:58.484Z,50.97
2018-12-16T12:05:41.854Z,46.50
2018-12-16T12:08:24.640Z,48.43
2018-12-16T12:11:10.958Z,47.47
2018-12-16T12:13:55.436Z,54.37
2018-12-16T12:16:39.777Z,52.47
2018-12-16T12:19:27.532Z,48.67
2018-12-16T12:22:11.576Z,49.10
2018-12-16T12:24:55.876Z,44.67
2018-12-16T12:27:40.756Z,43.83
2018-12-16T12:30:26.690Z,48.83
2018-12-16T12:33:10.629Z,54.17
2018-12-16T12:35:55.404Z,53.80
2018-12-16T12:38:40.353Z,52.37
2018-12-16T12:41:22.716Z,47.70
2018-12-16T12:44:06.566Z,49.63
2018-12-16T12:46:50.741Z,47.67
2018-12-16T12:49:33.957Z,56.03
2018-12-16T12:52:18.890Z,44.87
2018-12-16T12:55:03.501Z,48.93
2018-12-16T12:57:47.948Z,48.80
2018-12-16T13:00:35.257Z,48.00
2018-12-16T13:03:18.613Z,48.70
2018-12-16T13:06:02.916Z,38.73
2018-12-16T13:08:47.657Z,46.57
2018-12-16T13:11:31.109Z,53.37
2018-12-16T13:14:16.405Z,52.43
2018-12-16T13:16:59.919Z,94.93
2018-12-16T13:19:46.234Z,48.77
2018-12-16T13:22:29.501Z,42.23
2018-12-16T13:25:24.061Z,48.13
2018-12-16T13:28:07.740Z,46.33
2018-12-16T13:30:53.835Z,45.33
2018-12-16T13:33:37.859Z,41.37
2018-12-16T13:36:22.759Z,45.83
2018-12-16T13:39:10.106Z,49.53
2018-12-16T13:41:53.762Z,42.53
2018-12-16T13:44:38.814Z,49.27
2018-12-16T13:47:22.659Z,42.93
2018-12-16T13:50:06.521Z,44.30
2018-12-16T13:52:49.377Z,49.83
2018-12-16T13:55:33.477Z,52.43
2018-12-16T13:58:16.445Z,51.53
2018-12-16T14:01:01.905Z,44.17
2018-12-16T14:03:45.963Z,43.23
2018-12-16T14:06:29.786Z,46.53
2018-12-16T14:09:12.444Z,44.93
2018-12-16T14:11:56.866Z,45.33
2018-12-16T14:14:41.823Z,49.57
2018-12-16T14:17:26.897Z,50.27
2018-12-16T14:20:12.013Z,57.27
2018-12-16T14:22:57.107Z,47.80
2018-12-16T14:25:47.947Z,56.67
2018-12-16T14:28:28.744Z,44.83
2018-12-16T14:31:12.502Z,51.20
2018-12-16T14:33:56.365Z,50.40
2018-12-16T14:36:46.556Z,56.50
2018-12-16T14:39:31.867Z,65.47
2018-12-16T14:42:20.768Z,54.33
2018-12-16T14:45:05.390Z,59.93
2018-12-16T14:47:48.336Z,62.53
2018-12-16T14:50:31.124Z,56.97
2018-12-16T14:53:15.109Z,60.47
2018-12-16T14:55:59.004Z,54.80
2018-12-16T14:58:43.199Z,53.47
2018-12-16T15:01:27.249Z,57.40
2018-12-16T15:04:09.917Z,57.57
2018-12-16T15:06:54.499Z,53.40
2018-12-16T15:09:39.021Z,47.00
2018-12-16T15:12:26.216Z,50.83
2018-12-16T15:15:10.089Z,50.20
2018-12-16T15:17:53.342Z,53.00
2018-12-16T15:20:36.461Z,50.27
2018-12-16T15:23:21.614Z,51.30
2018-12-16T15:26:05.258Z,52.73
2018-12-16T15:28:49.702Z,45.80
2018-12-16T15:31:34.741Z,47.57
2018-12-16T15:34:18.851Z,53.03
2018-12-16T15:37:03.786Z,53.97
2018-12-16T15:39:47.842Z,62.47
2018-12-16T15:42:30.729Z,49.07
2018-12-16T15:45:18.478Z,52.53
2018-12-16T15:48:02.532Z,47.57
2018-12-16T15:50:45.557Z,49.73
2018-12-16T15:53:29.715Z,49.70
2018-12-16T15:56:13.792Z,49.90
2018-12-16T15:58:57.504Z,46.57
2018-12-16T16:01:41.550Z,51.93
2018-12-16T16:04:25.406Z,58.27
2018-12-16T16:07:08.218Z,47.03
2018-12-16T16:09:56.867Z,61.03
2018-12-16T16:12:44.582Z,62.93
2018-12-16T16:15:27.837Z,58.70
2018-12-16T16:18:11.292Z,66.37
2018-12-16T16:20:54.863Z,58.00
2018-12-16T16:23:38.289Z,73.03
2018-12-16T16:26:25.294Z,54.50
2018-12-16T16:29:10.291Z,68.23
2018-12-16T16:32:00.131Z,61.93
2018-12-16T16:34:43.229Z,73.33
2018-12-16T16:38:32.827Z,71.77
2018-12-16T16:41:58.293Z,66.60
2018-12-16T16:44:30.155Z,66.53
2018-12-16T16:47:05.306Z,71.00
2018-12-16T16:49:40.558Z,67.93
2018-12-16T16:52:14.587Z,61.93
2018-12-16T16:54:45.144Z,61.37
2018-12-16T16:57:17.857Z,55.27
2018-12-16T16:59:49.797Z,57.30
2018-12-16T17:02:22.341Z,50.60
2018-12-16T17:04:53.594Z,53.53
2018-12-16T17:07:25.624Z,60.47
2018-12-16T17:09:57.006Z,53.53
2018-12-16T17:12:59.995Z,57.97
2018-12-16T17:15:33.421Z,58.63
2018-12-16T17:18:04.802Z,61.00
2018-12-16T17:20:37.969Z,58.70
2018-12-16T17:23:10.020Z,58.87
2018-12-16T17:25:48.470Z,62.70
2018-12-16T17:28:19.696Z,64.53
2018-12-16T17:30:50.433Z,59.07
2018-12-16T17:33:23.212Z,49.67
2018-12-16T17:35:53.669Z,53.80
2018-12-16T17:38:23.759Z,54.17
2018-12-16T17:40:53.798Z,61.47
2018-12-16T17:43:25.769Z,58.70
2018-12-16T17:45:57.070Z,62.27
2018-12-16T17:48:28.054Z,57.30
2018-12-16T17:50:58.979Z,64.37
2018-12-16T17:53:30.190Z,56.20
2018-12-16T17:56:10.699Z,56.40
2018-12-16T17:59:00.181Z,63.73
2018-12-16T18:01:48.201Z,67.20
2018-12-16T18:04:21.838Z,60.07
2018-12-16T18:06:55.916Z,60.40
2018-12-16T18:09:27.024Z,55.53
2018-12-16T18:11:57.416Z,67.30
2018-12-16T18:14:28.061Z,74.20
2018-12-16T18:17:00.629Z,65.70
2018-12-16T18:19:34.090Z,59.37
2018-12-16T18:22:04.971Z,61.63
2018-12-16T18:24:37.397Z,68.17
2018-12-16T18:27:09.724Z,63.53
2018-12-16T18:29:41.262Z,75.03
2018-12-16T18:32:12.617Z,60.90
2018-12-16T18:34:45.031Z,54.90
2018-12-16T18:37:17.731Z,61.30
2018-12-16T18:39:48.677Z,63.50
2018-12-16T18:42:19.161Z,59.40
2018-12-16T18:44:49.709Z,63.43
2018-12-16T18:47:22.803Z,61.03
2018-12-16T18:49:53.342Z,58.73
2018-12-16T18:52:24.440Z,55.90
2018-12-16T18:55:03.217Z,58.20
2018-12-16T18:57:35.997Z,55.00
2018-12-16T19:00:10.369Z,52.80
2018-12-16T19:02:41.205Z,61.40
2018-12-16T19:05:12.993Z,65.73
2018-12-16T19:07:45.118Z,62.53
2018-12-16T19:10:18.551Z,60.47
2018-12-16T19:12:50.862Z,55.50
2018-12-16T19:15:22.437Z,53.03
2018-12-16T19:18:01.157Z,56.37
2018-12-16T19:20:34.122Z,52.77
2018-12-16T19:23:04.561Z,61.60
2018-12-16T19:25:35.444Z,62.37
2018-12-16T19:28:07.329Z,53.53
2018-12-16T19:30:38.923Z,67.27
2018-12-16T19:33:09.413Z,54.70
2018-12-16T19:35:41.926Z,51.27
2018-12-16T19:38:12.790Z,52.97
2018-12-16T19:40:44.124Z,51.23
2018-12-16T19:43:15.277Z,52.90
2018-12-16T19:45:47.021Z,60.73
2018-12-16T19:48:18.181Z,61.93
2018-12-16T19:50:48.880Z,61.83
2018-12-16T19:53:19.689Z,61.70
2018-12-16T19:55:50.479Z,78.97
2018-12-16T19:58:21.682Z,81.90
2018-12-16T20:00:53.490Z,71.00
2018-12-16T20:03:24.144Z,76.47
2018-12-16T20:06:00.926Z,75.23
2018-12-16T20:08:34.382Z,71.00
2018-12-16T20:11:06.011Z,88.63
2018-12-16T20:13:37.268Z,93.00
2018-12-16T20:16:10.812Z,90.43
2018-12-16T20:18:40.643Z,84.43
2018-12-16T20:21:11.664Z,88.93
2018-12-16T20:23:44.177Z,83.53
2018-12-16T20:26:17.360Z,93.20
2018-12-16T20:28:51.206Z,90.17
2018-12-16T20:31:23.341Z,84.27
2018-12-16T20:33:54.130Z,79.67
2018-12-16T20:36:24.329Z,101.83
2018-12-16T20:38:56.000Z,97.33
2018-12-16T20:41:27.058Z,95.17
2018-12-16T20:44:03.971Z,110.93
2018-12-16T20:46:36.260Z,117.23
2018-12-16T20:49:07.469Z,112.17
2018-12-16T20:51:45.937Z,101.07
2018-12-16T20:54:18.864Z,107.50
2018-12-16T20:56:51.093Z,98.07
2018-12-16T20:59:20.929Z,99.30
2018-12-16T21:01:51.469Z,95.67
2018-12-16T21:04:22.784Z,99.30
2018-12-16T21:06:54.452Z,115.17
2018-12-16T21:09:24.248Z,117.50
2018-12-16T21:12:01.917Z,119.03
2018-12-16T21:14:37.828Z,119.27
2018-12-16T21:17:14.537Z,128.33
2018-12-16T21:19:46.016Z,126.87
2018-12-16T21:26:01.881Z,106.63
2018-12-16T21:28:39.101Z,124.17
2018-12-16T21:31:17.084Z,133.00
2018-12-16T21:33:53.733Z,116.10
2018-12-16T21:36:30.292Z,105.90
2018-12-16T21:39:08.934Z,101.23
2018-12-16T21:41:44.630Z,101.93
2018-12-16T21:44:20.249Z,86.47
2018-12-16T21:46:57.480Z,74.07
2018-12-16T21:49:28.190Z,74.67
2018-12-16T21:51:58.389Z,79.70
2018-12-16T21:54:28.724Z,76.33
2018-12-16T21:57:00.373Z,76.23
2018-12-16T21:59:31.641Z,72.13
2018-12-16T22:02:01.874Z,73.40
2018-12-16T22:04:32.976Z,79.47
2018-12-16T22:07:03.537Z,73.50
2018-12-16T22:09:33.020Z,73.17
2018-12-16T22:12:03.143Z,69.37
2018-12-16T22:14:33.027Z,64.07
2018-12-16T22:17:05.019Z,67.77
2018-12-16T22:19:35.546Z,67.13
2018-12-16T22:22:05.970Z,64.90
2018-12-16T22:24:35.270Z,74.93
2018-12-16T22:27:06.525Z,75.60
2018-12-16T22:29:40.009Z,73.17
2018-12-16T22:32:13.159Z,69.50
2018-12-16T22:34:44.715Z,81.30
2018-12-16T22:37:16.820Z,72.60
2018-12-16T22:39:50.520Z,81.50
2018-12-16T22:42:20.909Z,76.30
2018-12-16T22:44:51.099Z,80.10
2018-12-16T22:47:21.515Z,83.77
2018-12-16T22:49:54.271Z,79.00
2018-12-16T22:52:24.742Z,74.97
2018-12-16T22:54:55.445Z,71.23
2018-12-16T22:57:25.069Z,77.80
2018-12-16T22:59:55.465Z,88.83
2018-12-16T23:02:25.555Z,76.63
2018-12-16T23:04:56.628Z,74.00
2018-12-16T23:07:26.366Z,72.30
2018-12-16T23:09:55.799Z,69.53
2018-12-16T23:12:25.654Z,60.00
2018-12-16T23:14:55.717Z,57.70
2018-12-16T23:17:26.869Z,54.63
2018-12-16T23:20:02.249Z,52.97
2018-12-16T23:22:32.867Z,51.57
2018-12-16T23:25:03.108Z,50.60
2018-12-16T23:27:33.747Z,50.80
2018-12-16T23:30:04.181Z,51.87
2018-12-16T23:32:37.923Z,49.20
2018-12-16T23:35:08.348Z,54.70
2018-12-16T23:37:37.980Z,51.97
2018-12-16T23:40:07.975Z,53.23
2018-12-16T23:42:37.551Z,57.53
2018-12-16T23:45:08.670Z,61.53
2018-12-16T23:47:38.377Z,56.93
2018-12-16T23:50:08.292Z,56.50
2018-12-16T23:52:38.231Z,48.10
2018-12-16T23:55:08.917Z,53.80
2018-12-16T23:57:38.327Z,54.10
